sensor_id;sensor_type;location;lat;lon;timestamp;P1;durP1;ratioP1;P2;durP2;ratioP2
52029;SDS011;38043;53.224;6.580;2023-09-07T00:00:29;5.78;;;3.15;;
52029;SDS011;38043;53.224;6.580;2023-09-07T00:02:55;6.05;;;3.60;;
52029;SDS011;38043;53.224;6.580;2023-09-07T00:05:21;7.18;;;3.65;;
52029;SDS011;38043;53.224;6.580;2023-09-07T00:07:46;9.05;;;3.83;;
52029;SDS011;38043;53.224;6.580;2023-09-07T00:10:12;5.05;;;3.67;;
52029;SDS011;38043;53.224;6.580;2023-09-07T00:12:38;8.95;;;3.78;;
52029;SDS011;38043;53.224;6.580;2023-09-07T00:15:05;5.15;;;3.70;;
52029;SDS011;38043;53.224;6.580;2023-09-07T00:17:35;9.10;;;3.53;;
52029;SDS011;38043;53.224;6.580;2023-09-07T00:20:01;8.70;;;3.80;;
52029;SDS011;38043;53.224;6.580;2023-09-07T00:22:35;8.38;;;4.00;;
52029;SDS011;38043;53.224;6.580;2023-09-07T00:25:03;6.53;;;3.53;;
52029;SDS011;38043;53.224;6.580;2023-09-07T00:27:30;7.10;;;3.75;;
52029;SDS011;38043;53.224;6.580;2023-09-07T00:29:55;8.98;;;3.63;;
52029;SDS011;38043;53.224;6.580;2023-09-07T00:32:21;6.05;;;3.83;;
52029;SDS011;38043;53.224;6.580;2023-09-07T00:34:47;6.43;;;3.42;;
52029;SDS011;38043;53.224;6.580;2023-09-07T00:37:12;5.68;;;4.00;;
52029;SDS011;38043;53.224;6.580;2023-09-07T00:39:38;6.00;;;3.78;;
52029;SDS011;38043;53.224;6.580;2023-09-07T00:42:04;7.30;;;3.40;;
52029;SDS011;38043;53.224;6.580;2023-09-07T00:44:29;8.23;;;3.50;;
52029;SDS011;38043;53.224;6.580;2023-09-07T00:46:56;7.85;;;3.42;;
52029;SDS011;38043;53.224;6.580;2023-09-07T00:49:24;6.15;;;3.78;;
52029;SDS011;38043;53.224;6.580;2023-09-07T00:51:51;6.35;;;3.83;;
52029;SDS011;38043;53.224;6.580;2023-09-07T00:54:17;8.02;;;4.15;;
52029;SDS011;38043;53.224;6.580;2023-09-07T00:56:43;8.55;;;4.05;;
52029;SDS011;38043;53.224;6.580;2023-09-07T00:59:09;6.93;;;3.63;;
52029;SDS011;38043;53.224;6.580;2023-09-07T01:01:36;5.68;;;4.03;;
52029;SDS011;38043;53.224;6.580;2023-09-07T01:04:02;7.13;;;3.67;;
52029;SDS011;38043;53.224;6.580;2023-09-07T01:08:54;7.47;;;3.90;;
52029;SDS011;38043;53.224;6.580;2023-09-07T01:11:22;7.07;;;4.13;;
52029;SDS011;38043;53.224;6.580;2023-09-07T01:13:48;7.38;;;4.13;;
52029;SDS011;38043;53.224;6.580;2023-09-07T01:16:15;6.35;;;4.28;;
52029;SDS011;38043;53.224;6.580;2023-09-07T01:18:41;11.52;;;4.15;;
52029;SDS011;38043;53.224;6.580;2023-09-07T01:21:08;9.32;;;4.15;;
52029;SDS011;38043;53.224;6.580;2023-09-07T01:23:39;6.03;;;4.10;;
52029;SDS011;38043;53.224;6.580;2023-09-07T01:26:07;7.30;;;4.00;;
52029;SDS011;38043;53.224;6.580;2023-09-07T01:28:34;8.95;;;4.43;;
52029;SDS011;38043;53.224;6.580;2023-09-07T01:31:00;5.00;;;3.85;;
52029;SDS011;38043;53.224;6.580;2023-09-07T01:33:29;8.38;;;3.83;;
52029;SDS011;38043;53.224;6.580;2023-09-07T01:35:55;5.00;;;3.78;;
52029;SDS011;38043;53.224;6.580;2023-09-07T01:38:20;7.60;;;4.00;;
52029;SDS011;38043;53.224;6.580;2023-09-07T01:40:46;5.28;;;4.07;;
52029;SDS011;38043;53.224;6.580;2023-09-07T01:43:12;4.95;;;4.07;;
52029;SDS011;38043;53.224;6.580;2023-09-07T01:45:37;5.88;;;4.18;;
52029;SDS011;38043;53.224;6.580;2023-09-07T01:48:05;6.93;;;4.10;;
52029;SDS011;38043;53.224;6.580;2023-09-07T01:50:33;6.88;;;4.55;;
52029;SDS011;38043;53.224;6.580;2023-09-07T01:52:59;11.40;;;4.40;;
52029;SDS011;38043;53.224;6.580;2023-09-07T01:55:26;7.15;;;4.40;;
52029;SDS011;38043;53.224;6.580;2023-09-07T01:57:52;6.25;;;4.35;;
52029;SDS011;38043;53.224;6.580;2023-09-07T02:00:18;6.20;;;4.20;;
52029;SDS011;38043;53.224;6.580;2023-09-07T02:02:43;9.70;;;4.70;;
52029;SDS011;38043;53.224;6.580;2023-09-07T02:05:09;8.52;;;4.53;;
52029;SDS011;38043;53.224;6.580;2023-09-07T02:07:35;7.68;;;4.60;;
52029;SDS011;38043;53.224;6.580;2023-09-07T02:10:01;12.57;;;4.97;;
52029;SDS011;38043;53.224;6.580;2023-09-07T02:14:54;8.82;;;4.30;;
52029;SDS011;38043;53.224;6.580;2023-09-07T02:17:21;7.10;;;4.70;;
52029;SDS011;38043;53.224;6.580;2023-09-07T02:19:46;6.78;;;4.70;;
52029;SDS011;38043;53.224;6.580;2023-09-07T02:22:12;7.15;;;4.80;;
52029;SDS011;38043;53.224;6.580;2023-09-07T02:24:38;10.23;;;4.50;;
52029;SDS011;38043;53.224;6.580;2023-09-07T02:27:03;7.20;;;4.53;;
52029;SDS011;38043;53.224;6.580;2023-09-07T02:29:29;10.80;;;4.53;;
52029;SDS011;38043;53.224;6.580;2023-09-07T02:31:55;8.88;;;5.18;;
52029;SDS011;38043;53.224;6.580;2023-09-07T02:34:22;8.55;;;5.07;;
52029;SDS011;38043;53.224;6.580;2023-09-07T02:36:47;6.82;;;5.47;;
52029;SDS011;38043;53.224;6.580;2023-09-07T02:39:13;8.68;;;4.97;;
52029;SDS011;38043;53.224;6.580;2023-09-07T02:41:38;7.82;;;4.82;;
52029;SDS011;38043;53.224;6.580;2023-09-07T02:44:04;7.53;;;4.80;;
52029;SDS011;38043;53.224;6.580;2023-09-07T02:46:30;7.20;;;5.07;;
52029;SDS011;38043;53.224;6.580;2023-09-07T02:48:56;10.80;;;5.10;;
52029;SDS011;38043;53.224;6.580;2023-09-07T02:51:23;8.95;;;4.65;;
52029;SDS011;38043;53.224;6.580;2023-09-07T02:53:49;9.70;;;5.07;;
52029;SDS011;38043;53.224;6.580;2023-09-07T02:56:15;5.80;;;4.72;;
52029;SDS011;38043;53.224;6.580;2023-09-07T02:58:41;8.20;;;4.90;;
52029;SDS011;38043;53.224;6.580;2023-09-07T03:01:06;8.18;;;5.13;;
52029;SDS011;38043;53.224;6.580;2023-09-07T03:03:35;7.88;;;5.25;;
52029;SDS011;38043;53.224;6.580;2023-09-07T03:06:08;7.97;;;5.30;;
52029;SDS011;38043;53.224;6.580;2023-09-07T03:08:38;9.10;;;5.50;;
52029;SDS011;38043;53.224;6.580;2023-09-07T03:11:07;6.60;;;5.05;;
52029;SDS011;38043;53.224;6.580;2023-09-07T03:13:33;10.00;;;5.60;;
52029;SDS011;38043;53.224;6.580;2023-09-07T03:15:59;7.43;;;5.35;;
52029;SDS011;38043;53.224;6.580;2023-09-07T03:18:25;8.77;;;5.50;;
52029;SDS011;38043;53.224;6.580;2023-09-07T03:20:52;9.35;;;5.10;;
52029;SDS011;38043;53.224;6.580;2023-09-07T03:23:20;6.70;;;5.68;;
52029;SDS011;38043;53.224;6.580;2023-09-07T03:25:46;8.70;;;5.72;;
52029;SDS011;38043;53.224;6.580;2023-09-07T03:28:12;10.50;;;5.53;;
52029;SDS011;38043;53.224;6.580;2023-09-07T03:30:38;9.77;;;5.70;;
52029;SDS011;38043;53.224;6.580;2023-09-07T03:33:04;7.82;;;5.90;;
52029;SDS011;38043;53.224;6.580;2023-09-07T03:35:30;9.55;;;5.88;;
52029;SDS011;38043;53.224;6.580;2023-09-07T03:37:56;8.15;;;6.13;;
52029;SDS011;38043;53.224;6.580;2023-09-07T03:40:22;8.90;;;6.03;;
52029;SDS011;38043;53.224;6.580;2023-09-07T03:42:48;8.40;;;6.13;;
52029;SDS011;38043;53.224;6.580;2023-09-07T03:45:14;6.43;;;5.60;;
52029;SDS011;38043;53.224;6.580;2023-09-07T03:47:39;11.00;;;6.82;;
52029;SDS011;38043;53.224;6.580;2023-09-07T03:50:07;8.10;;;6.03;;
52029;SDS011;38043;53.224;6.580;2023-09-07T03:52:33;10.10;;;5.90;;
52029;SDS011;38043;53.224;6.580;2023-09-07T03:54:58;7.25;;;5.55;;
52029;SDS011;38043;53.224;6.580;2023-09-07T03:57:25;8.50;;;6.40;;
52029;SDS011;38043;53.224;6.580;2023-09-07T03:59:53;8.32;;;6.32;;
52029;SDS011;38043;53.224;6.580;2023-09-07T04:02:22;6.60;;;5.88;;
52029;SDS011;38043;53.224;6.580;2023-09-07T04:04:52;11.80;;;6.47;;
52029;SDS011;38043;53.224;6.580;2023-09-07T04:07:18;10.73;;;6.68;;
52029;SDS011;38043;53.224;6.580;2023-09-07T04:09:47;10.20;;;6.32;;
52029;SDS011;38043;53.224;6.580;2023-09-07T04:12:15;9.02;;;6.88;;
52029;SDS011;38043;53.224;6.580;2023-09-07T04:14:40;10.75;;;7.10;;
52029;SDS011;38043;53.224;6.580;2023-09-07T04:17:07;9.57;;;6.70;;
52029;SDS011;38043;53.224;6.580;2023-09-07T04:19:33;8.05;;;6.85;;
52029;SDS011;38043;53.224;6.580;2023-09-07T04:21:58;11.10;;;6.80;;
52029;SDS011;38043;53.224;6.580;2023-09-07T04:24:25;9.23;;;6.93;;
52029;SDS011;38043;53.224;6.580;2023-09-07T04:26:52;10.07;;;6.97;;
52029;SDS011;38043;53.224;6.580;2023-09-07T04:29:18;9.25;;;7.25;;
52029;SDS011;38043;53.224;6.580;2023-09-07T04:31:44;11.00;;;7.47;;
52029;SDS011;38043;53.224;6.580;2023-09-07T04:34:09;10.95;;;7.18;;
52029;SDS011;38043;53.224;6.580;2023-09-07T04:36:35;12.23;;;7.45;;
52029;SDS011;38043;53.224;6.580;2023-09-07T04:39:01;13.07;;;7.70;;
52029;SDS011;38043;53.224;6.580;2023-09-07T04:41:28;9.95;;;8.27;;
52029;SDS011;38043;53.224;6.580;2023-09-07T04:43:54;10.18;;;7.70;;
52029;SDS011;38043;53.224;6.580;2023-09-07T04:46:21;9.18;;;7.57;;
52029;SDS011;38043;53.224;6.580;2023-09-07T04:48:48;11.63;;;7.55;;
52029;SDS011;38043;53.224;6.580;2023-09-07T04:51:14;8.52;;;7.00;;
52029;SDS011;38043;53.224;6.580;2023-09-07T04:53:39;13.10;;;7.50;;
52029;SDS011;38043;53.224;6.580;2023-09-07T04:56:06;11.80;;;7.57;;
52029;SDS011;38043;53.224;6.580;2023-09-07T04:58:35;10.23;;;7.40;;
52029;SDS011;38043;53.224;6.580;2023-09-07T05:01:04;11.27;;;7.07;;
52029;SDS011;38043;53.224;6.580;2023-09-07T05:03:31;10.20;;;7.63;;
52029;SDS011;38043;53.224;6.580;2023-09-07T05:05:57;10.68;;;7.20;;
52029;SDS011;38043;53.224;6.580;2023-09-07T05:08:23;9.88;;;7.43;;
52029;SDS011;38043;53.224;6.580;2023-09-07T05:10:54;12.25;;;7.70;;
52029;SDS011;38043;53.224;6.580;2023-09-07T05:13:20;13.50;;;7.53;;
52029;SDS011;38043;53.224;6.580;2023-09-07T05:15:50;10.07;;;7.80;;
52029;SDS011;38043;53.224;6.580;2023-09-07T05:18:17;11.25;;;7.93;;
52029;SDS011;38043;53.224;6.580;2023-09-07T05:20:43;13.30;;;7.78;;
52029;SDS011;38043;53.224;6.580;2023-09-07T05:23:16;14.07;;;7.75;;
52029;SDS011;38043;53.224;6.580;2023-09-07T05:25:44;8.35;;;7.43;;
52029;SDS011;38043;53.224;6.580;2023-09-07T05:28:10;13.70;;;7.32;;
52029;SDS011;38043;53.224;6.580;2023-09-07T05:30:37;9.15;;;8.00;;
52029;SDS011;38043;53.224;6.580;2023-09-07T05:33:03;12.52;;;8.00;;
52029;SDS011;38043;53.224;6.580;2023-09-07T05:35:29;13.40;;;7.57;;
52029;SDS011;38043;53.224;6.580;2023-09-07T05:37:57;21.45;;;8.75;;
52029;SDS011;38043;53.224;6.580;2023-09-07T05:40:23;13.60;;;7.60;;
52029;SDS011;38043;53.224;6.580;2023-09-07T05:42:49;12.40;;;7.93;;
52029;SDS011;38043;53.224;6.580;2023-09-07T05:45:15;11.35;;;7.60;;
52029;SDS011;38043;53.224;6.580;2023-09-07T05:47:41;13.98;;;8.45;;
52029;SDS011;38043;53.224;6.580;2023-09-07T05:50:06;12.20;;;7.70;;
52029;SDS011;38043;53.224;6.580;2023-09-07T05:52:32;10.18;;;7.70;;
52029;SDS011;38043;53.224;6.580;2023-09-07T05:54:58;11.82;;;8.93;;
52029;SDS011;38043;53.224;6.580;2023-09-07T05:57:24;12.50;;;8.52;;
52029;SDS011;38043;53.224;6.580;2023-09-07T05:59:49;13.80;;;8.93;;
52029;SDS011;38043;53.224;6.580;2023-09-07T06:02:15;10.30;;;8.02;;
52029;SDS011;38043;53.224;6.580;2023-09-07T06:04:40;14.32;;;8.20;;
52029;SDS011;38043;53.224;6.580;2023-09-07T06:07:06;11.32;;;7.85;;
52029;SDS011;38043;53.224;6.580;2023-09-07T06:09:32;14.57;;;7.95;;
52029;SDS011;38043;53.224;6.580;2023-09-07T06:11:57;9.77;;;8.23;;
52029;SDS011;38043;53.224;6.580;2023-09-07T06:14:23;12.35;;;7.45;;
52029;SDS011;38043;53.224;6.580;2023-09-07T06:16:48;11.23;;;7.68;;
52029;SDS011;38043;53.224;6.580;2023-09-07T06:19:14;11.07;;;7.78;;
52029;SDS011;38043;53.224;6.580;2023-09-07T06:21:40;8.68;;;6.97;;
52029;SDS011;38043;53.224;6.580;2023-09-07T06:24:07;12.40;;;7.82;;
52029;SDS011;38043;53.224;6.580;2023-09-07T06:26:32;11.70;;;7.82;;
52029;SDS011;38043;53.224;6.580;2023-09-07T06:28:58;10.75;;;7.72;;
52029;SDS011;38043;53.224;6.580;2023-09-07T06:31:24;8.82;;;7.57;;
52029;SDS011;38043;53.224;6.580;2023-09-07T06:33:49;9.02;;;7.53;;
52029;SDS011;38043;53.224;6.580;2023-09-07T06:36:15;9.85;;;7.43;;
52029;SDS011;38043;53.224;6.580;2023-09-07T06:38:41;10.70;;;7.60;;
52029;SDS011;38043;53.224;6.580;2023-09-07T06:41:06;9.50;;;6.93;;
52029;SDS011;38043;53.224;6.580;2023-09-07T06:46:05;11.07;;;7.22;;
52029;SDS011;38043;53.224;6.580;2023-09-07T06:48:34;11.02;;;7.50;;
52029;SDS011;38043;53.224;6.580;2023-09-07T06:51:03;10.45;;;7.20;;
52029;SDS011;38043;53.224;6.580;2023-09-07T06:53:30;10.10;;;7.40;;
52029;SDS011;38043;53.224;6.580;2023-09-07T06:55:59;14.98;;;7.18;;
52029;SDS011;38043;53.224;6.580;2023-09-07T06:58:26;12.43;;;7.05;;
52029;SDS011;38043;53.224;6.580;2023-09-07T07:00:52;10.30;;;7.07;;
52029;SDS011;38043;53.224;6.580;2023-09-07T07:03:21;11.80;;;6.72;;
52029;SDS011;38043;53.224;6.580;2023-09-07T07:05:51;10.43;;;6.30;;
52029;SDS011;38043;53.224;6.580;2023-09-07T07:08:17;13.85;;;6.45;;
52029;SDS011;38043;53.224;6.580;2023-09-07T07:10:42;9.52;;;6.30;;
52029;SDS011;38043;53.224;6.580;2023-09-07T07:13:11;9.45;;;7.05;;
52029;SDS011;38043;53.224;6.580;2023-09-07T07:15:37;11.02;;;6.72;;
52029;SDS011;38043;53.224;6.580;2023-09-07T07:18:02;14.75;;;6.75;;
52029;SDS011;38043;53.224;6.580;2023-09-07T07:20:34;8.68;;;6.93;;
52029;SDS011;38043;53.224;6.580;2023-09-07T07:23:03;10.43;;;6.57;;
52029;SDS011;38043;53.224;6.580;2023-09-07T07:27:58;9.63;;;6.13;;
52029;SDS011;38043;53.224;6.580;2023-09-07T07:30:30;9.27;;;6.35;;
52029;SDS011;38043;53.224;6.580;2023-09-07T07:32:57;10.23;;;6.10;;
52029;SDS011;38043;53.224;6.580;2023-09-07T07:35:22;8.45;;;5.95;;
52029;SDS011;38043;53.224;6.580;2023-09-07T07:37:49;8.65;;;6.20;;
52029;SDS011;38043;53.224;6.580;2023-09-07T07:40:15;9.77;;;5.85;;
52029;SDS011;38043;53.224;6.580;2023-09-07T07:42:43;10.60;;;6.35;;
52029;SDS011;38043;53.224;6.580;2023-09-07T07:45:12;8.13;;;6.05;;
52029;SDS011;38043;53.224;6.580;2023-09-07T07:47:38;7.53;;;6.28;;
52029;SDS011;38043;53.224;6.580;2023-09-07T07:50:05;9.40;;;6.32;;
52029;SDS011;38043;53.224;6.580;2023-09-07T07:52:31;13.25;;;6.72;;
52029;SDS011;38043;53.224;6.580;2023-09-07T07:54:56;11.23;;;6.90;;
52029;SDS011;38043;53.224;6.580;2023-09-07T07:57:22;9.73;;;6.03;;
52029;SDS011;38043;53.224;6.580;2023-09-07T07:59:48;7.60;;;6.15;;
52029;SDS011;38043;53.224;6.580;2023-09-07T08:02:14;8.82;;;5.90;;
52029;SDS011;38043;53.224;6.580;2023-09-07T08:04:39;8.70;;;6.10;;
52029;SDS011;38043;53.224;6.580;2023-09-07T08:07:05;13.20;;;6.10;;
52029;SDS011;38043;53.224;6.580;2023-09-07T08:11:59;10.55;;;5.65;;
52029;SDS011;38043;53.224;6.580;2023-09-07T08:14:27;10.50;;;6.43;;
52029;SDS011;38043;53.224;6.580;2023-09-07T08:16:54;13.02;;;6.25;;
52029;SDS011;38043;53.224;6.580;2023-09-07T08:19:19;13.00;;;5.68;;
52029;SDS011;38043;53.224;6.580;2023-09-07T08:21:45;9.48;;;6.35;;
52029;SDS011;38043;53.224;6.580;2023-09-07T08:24:12;12.77;;;5.93;;
52029;SDS011;38043;53.224;6.580;2023-09-07T08:26:38;12.43;;;6.40;;
52029;SDS011;38043;53.224;6.580;2023-09-07T08:29:04;9.07;;;5.55;;
52029;SDS011;38043;53.224;6.580;2023-09-07T08:31:37;10.43;;;6.70;;
52029;SDS011;38043;53.224;6.580;2023-09-07T08:34:06;11.30;;;6.53;;
52029;SDS011;38043;53.224;6.580;2023-09-07T08:36:38;7.65;;;5.70;;
52029;SDS011;38043;53.224;6.580;2023-09-07T08:39:04;9.38;;;5.43;;
52029;SDS011;38043;53.224;6.580;2023-09-07T08:41:41;13.70;;;5.88;;
52029;SDS011;38043;53.224;6.580;2023-09-07T08:44:10;17.35;;;6.10;;
52029;SDS011;38043;53.224;6.580;2023-09-07T08:46:37;7.35;;;5.25;;
52029;SDS011;38043;53.224;6.580;2023-09-07T08:49:03;29.98;;;6.85;;
52029;SDS011;38043;53.224;6.580;2023-09-07T08:51:30;12.57;;;5.05;;
52029;SDS011;38043;53.224;6.580;2023-09-07T08:53:57;9.73;;;5.82;;
52029;SDS011;38043;53.224;6.580;2023-09-07T08:56:23;8.85;;;5.47;;
52029;SDS011;38043;53.224;6.580;2023-09-07T08:58:50;10.25;;;5.57;;
52029;SDS011;38043;53.224;6.580;2023-09-07T09:01:16;7.47;;;5.50;;
52029;SDS011;38043;53.224;6.580;2023-09-07T09:03:42;8.18;;;4.75;;
52029;SDS011;38043;53.224;6.580;2023-09-07T09:06:08;7.72;;;5.18;;
52029;SDS011;38043;53.224;6.580;2023-09-07T09:08:50;8.07;;;4.85;;
52029;SDS011;38043;53.224;6.580;2023-09-07T09:11:18;9.93;;;5.18;;
52029;SDS011;38043;53.224;6.580;2023-09-07T09:13:45;9.77;;;4.82;;
52029;SDS011;38043;53.224;6.580;2023-09-07T09:16:11;10.95;;;5.00;;
52029;SDS011;38043;53.224;6.580;2023-09-07T09:18:50;9.55;;;4.38;;
52029;SDS011;38043;53.224;6.580;2023-09-07T09:21:22;10.07;;;5.05;;
52029;SDS011;38043;53.224;6.580;2023-09-07T09:23:50;7.88;;;4.57;;
52029;SDS011;38043;53.224;6.580;2023-09-07T09:26:21;7.63;;;4.50;;
52029;SDS011;38043;53.224;6.580;2023-09-07T09:28:48;7.95;;;4.13;;
52029;SDS011;38043;53.224;6.580;2023-09-07T09:31:17;6.38;;;4.25;;
52029;SDS011;38043;53.224;6.580;2023-09-07T09:33:47;6.03;;;3.95;;
52029;SDS011;38043;53.224;6.580;2023-09-07T09:36:13;7.20;;;4.20;;
52029;SDS011;38043;53.224;6.580;2023-09-07T09:38:39;11.02;;;4.50;;
52029;SDS011;38043;53.224;6.580;2023-09-07T09:41:05;6.75;;;4.85;;
52029;SDS011;38043;53.224;6.580;2023-09-07T09:43:32;9.50;;;3.90;;
52029;SDS011;38043;53.224;6.580;2023-09-07T09:45:58;8.07;;;4.22;;
52029;SDS011;38043;53.224;6.580;2023-09-07T09:48:25;5.25;;;3.80;;
52029;SDS011;38043;53.224;6.580;2023-09-07T09:50:53;12.82;;;4.07;;
52029;SDS011;38043;53.224;6.580;2023-09-07T09:53:19;7.07;;;4.32;;
52029;SDS011;38043;53.224;6.580;2023-09-07T09:55:46;6.38;;;4.05;;
52029;SDS011;38043;53.224;6.580;2023-09-07T09:58:15;6.63;;;3.57;;
52029;SDS011;38043;53.224;6.580;2023-09-07T10:00:51;7.93;;;4.57;;
52029;SDS011;38043;53.224;6.580;2023-09-07T10:03:24;6.43;;;3.70;;
52029;SDS011;38043;53.224;6.580;2023-09-07T10:05:53;6.95;;;3.88;;
52029;SDS011;38043;53.224;6.580;2023-09-07T10:08:19;9.73;;;4.18;;
52029;SDS011;38043;53.224;6.580;2023-09-07T10:10:48;10.88;;;4.25;;
52029;SDS011;38043;53.224;6.580;2023-09-07T10:13:28;7.45;;;3.42;;
52029;SDS011;38043;53.224;6.580;2023-09-07T10:16:02;6.35;;;3.67;;
52029;SDS011;38043;53.224;6.580;2023-09-07T10:18:35;4.97;;;3.63;;
52029;SDS011;38043;53.224;6.580;2023-09-07T10:21:02;9.95;;;4.20;;
52029;SDS011;38043;53.224;6.580;2023-09-07T10:24:02;7.18;;;3.63;;
52029;SDS011;38043;53.224;6.580;2023-09-07T10:26:20;7.75;;;4.00;;
52029;SDS011;38043;53.224;6.580;2023-09-07T10:28:46;7.40;;;4.15;;
52029;SDS011;38043;53.224;6.580;2023-09-07T10:31:24;8.65;;;3.90;;
52029;SDS011;38043;53.224;6.580;2023-09-07T10:33:52;7.95;;;4.32;;
52029;SDS011;38043;53.224;6.580;2023-09-07T10:36:21;9.30;;;3.70;;
52029;SDS011;38043;53.224;6.580;2023-09-07T10:38:48;7.93;;;3.90;;
52029;SDS011;38043;53.224;6.580;2023-09-07T10:41:14;8.38;;;4.18;;
52029;SDS011;38043;53.224;6.580;2023-09-07T10:43:50;8.40;;;3.55;;
52029;SDS011;38043;53.224;6.580;2023-09-07T10:46:20;14.95;;;4.00;;
52029;SDS011;38043;53.224;6.580;2023-09-07T10:48:53;7.50;;;3.80;;
52029;SDS011;38043;53.224;6.580;2023-09-07T10:51:21;24.77;;;3.70;;
52029;SDS011;38043;53.224;6.580;2023-09-07T10:53:47;8.90;;;3.78;;
52029;SDS011;38043;53.224;6.580;2023-09-07T10:56:13;7.78;;;3.40;;
52029;SDS011;38043;53.224;6.580;2023-09-07T10:58:38;7.50;;;3.80;;
52029;SDS011;38043;53.224;6.580;2023-09-07T11:01:06;6.25;;;3.80;;
52029;SDS011;38043;53.224;6.580;2023-09-07T11:03:32;9.90;;;3.92;;
52029;SDS011;38043;53.224;6.580;2023-09-07T11:08:44;13.93;;;3.70;;
52029;SDS011;38043;53.224;6.580;2023-09-07T11:11:11;8.35;;;3.80;;
52029;SDS011;38043;53.224;6.580;2023-09-07T11:13:37;6.63;;;3.80;;
52029;SDS011;38043;53.224;6.580;2023-09-07T11:16:06;5.77;;;3.80;;
52029;SDS011;38043;53.224;6.580;2023-09-07T11:18:33;9.23;;;4.10;;
52029;SDS011;38043;53.224;6.580;2023-09-07T11:21:01;5.88;;;3.42;;
52029;SDS011;38043;53.224;6.580;2023-09-07T11:23:32;8.00;;;4.03;;
52029;SDS011;38043;53.224;6.580;2023-09-07T11:26:06;8.38;;;4.03;;
52029;SDS011;38043;53.224;6.580;2023-09-07T11:28:34;12.07;;;3.72;;
52029;SDS011;38043;53.224;6.580;2023-09-07T11:31:00;3.67;;;3.07;;
52029;SDS011;38043;53.224;6.580;2023-09-07T11:33:26;6.20;;;3.20;;
52029;SDS011;38043;53.224;6.580;2023-09-07T11:35:56;6.93;;;3.10;;
52029;SDS011;38043;53.224;6.580;2023-09-07T11:38:28;6.80;;;3.83;;
52029;SDS011;38043;53.224;6.580;2023-09-07T11:40:54;8.60;;;3.40;;
52029;SDS011;38043;53.224;6.580;2023-09-07T11:43:20;7.27;;;3.40;;
52029;SDS011;38043;53.224;6.580;2023-09-07T11:45:48;6.32;;;3.78;;
52029;SDS011;38043;53.224;6.580;2023-09-07T11:48:14;10.20;;;3.38;;
52029;SDS011;38043;53.224;6.580;2023-09-07T11:50:40;7.80;;;3.60;;
52029;SDS011;38043;53.224;6.580;2023-09-07T11:53:06;10.93;;;3.43;;
52029;SDS011;38043;53.224;6.580;2023-09-07T11:55:34;7.38;;;3.80;;
52029;SDS011;38043;53.224;6.580;2023-09-07T11:58:00;4.53;;;3.65;;
52029;SDS011;38043;53.224;6.580;2023-09-07T12:00:27;9.48;;;3.75;;
52029;SDS011;38043;53.224;6.580;2023-09-07T12:02:53;9.90;;;3.72;;
52029;SDS011;38043;53.224;6.580;2023-09-07T12:05:18;8.20;;;3.60;;
52029;SDS011;38043;53.224;6.580;2023-09-07T12:07:44;10.07;;;3.80;;
52029;SDS011;38043;53.224;6.580;2023-09-07T12:10:10;11.27;;;3.27;;
52029;SDS011;38043;53.224;6.580;2023-09-07T12:12:42;9.45;;;3.30;;
52029;SDS011;38043;53.224;6.580;2023-09-07T12:15:09;11.48;;;3.72;;
52029;SDS011;38043;53.224;6.580;2023-09-07T12:17:38;10.52;;;4.13;;
52029;SDS011;38043;53.224;6.580;2023-09-07T12:20:04;4.93;;;3.50;;
52029;SDS011;38043;53.224;6.580;2023-09-07T12:22:34;5.47;;;2.80;;
52029;SDS011;38043;53.224;6.580;2023-09-07T12:27:26;4.93;;;3.40;;
52029;SDS011;38043;53.224;6.580;2023-09-07T12:29:52;7.97;;;4.03;;
52029;SDS011;38043;53.224;6.580;2023-09-07T12:32:17;6.20;;;3.30;;
52029;SDS011;38043;53.224;6.580;2023-09-07T12:34:43;9.33;;;3.60;;
52029;SDS011;38043;53.224;6.580;2023-09-07T12:37:09;8.20;;;3.90;;
52029;SDS011;38043;53.224;6.580;2023-09-07T12:39:34;5.03;;;3.90;;
52029;SDS011;38043;53.224;6.580;2023-09-07T12:42:01;10.57;;;3.77;;
52029;SDS011;38043;53.224;6.580;2023-09-07T12:44:28;7.97;;;3.45;;
52029;SDS011;38043;53.224;6.580;2023-09-07T12:46:54;10.40;;;3.90;;
52029;SDS011;38043;53.224;6.580;2023-09-07T12:49:19;8.10;;;4.03;;
52029;SDS011;38043;53.224;6.580;2023-09-07T12:51:45;9.67;;;4.03;;
52029;SDS011;38043;53.224;6.580;2023-09-07T12:54:12;6.38;;;3.33;;
52029;SDS011;38043;53.224;6.580;2023-09-07T12:56:37;9.27;;;3.87;;
52029;SDS011;38043;53.224;6.580;2023-09-07T12:59:03;8.13;;;4.77;;
52029;SDS011;38043;53.224;6.580;2023-09-07T13:01:29;8.53;;;3.93;;
52029;SDS011;38043;53.224;6.580;2023-09-07T13:03:56;9.18;;;3.90;;
52029;SDS011;38043;53.224;6.580;2023-09-07T13:06:21;4.43;;;3.63;;
52029;SDS011;38043;53.224;6.580;2023-09-07T13:08:47;8.20;;;3.90;;
52029;SDS011;38043;53.224;6.580;2023-09-07T13:11:13;10.87;;;4.23;;
52029;SDS011;38043;53.224;6.580;2023-09-07T13:13:39;10.60;;;4.37;;
52029;SDS011;38043;53.224;6.580;2023-09-07T13:16:04;6.83;;;3.93;;
52029;SDS011;38043;53.224;6.580;2023-09-07T13:18:30;7.13;;;3.15;;
52029;SDS011;38043;53.224;6.580;2023-09-07T13:20:56;9.80;;;3.53;;
52029;SDS011;38043;53.224;6.580;2023-09-07T13:23:25;6.22;;;4.00;;
52029;SDS011;38043;53.224;6.580;2023-09-07T13:25:51;10.60;;;4.22;;
52029;SDS011;38043;53.224;6.580;2023-09-07T13:28:17;9.07;;;4.03;;
52029;SDS011;38043;53.224;6.580;2023-09-07T13:30:43;6.53;;;3.40;;
52029;SDS011;38043;53.224;6.580;2023-09-07T13:33:08;6.60;;;3.43;;
52029;SDS011;38043;53.224;6.580;2023-09-07T13:35:34;7.80;;;3.37;;
52029;SDS011;38043;53.224;6.580;2023-09-07T13:38:00;5.60;;;3.40;;
52029;SDS011;38043;53.224;6.580;2023-09-07T13:40:25;5.20;;;3.83;;
52029;SDS011;38043;53.224;6.580;2023-09-07T13:42:54;8.07;;;3.75;;
52029;SDS011;38043;53.224;6.580;2023-09-07T13:45:21;6.47;;;3.38;;
52029;SDS011;38043;53.224;6.580;2023-09-07T13:47:47;8.40;;;3.87;;
52029;SDS011;38043;53.224;6.580;2023-09-07T13:50:13;6.87;;;3.47;;
52029;SDS011;38043;53.224;6.580;2023-09-07T13:52:39;9.47;;;4.30;;
52029;SDS011;38043;53.224;6.580;2023-09-07T13:55:05;7.87;;;3.77;;
52029;SDS011;38043;53.224;6.580;2023-09-07T13:57:32;10.02;;;4.10;;
52029;SDS011;38043;53.224;6.580;2023-09-07T14:02:24;5.85;;;3.55;;
52029;SDS011;38043;53.224;6.580;2023-09-07T14:04:49;5.35;;;3.63;;
52029;SDS011;38043;53.224;6.580;2023-09-07T14:07:15;8.77;;;3.83;;
52029;SDS011;38043;53.224;6.580;2023-09-07T14:09:41;8.40;;;4.38;;
52029;SDS011;38043;53.224;6.580;2023-09-07T14:12:06;6.55;;;3.33;;
52029;SDS011;38043;53.224;6.580;2023-09-07T14:14:32;8.18;;;3.85;;
52029;SDS011;38043;53.224;6.580;2023-09-07T14:16:58;7.75;;;3.80;;
52029;SDS011;38043;53.224;6.580;2023-09-07T14:19:25;6.28;;;3.60;;
52029;SDS011;38043;53.224;6.580;2023-09-07T14:21:55;6.15;;;3.80;;
52029;SDS011;38043;53.224;6.580;2023-09-07T14:24:24;6.65;;;3.60;;
52029;SDS011;38043;53.224;6.580;2023-09-07T14:26:50;8.98;;;3.47;;
52029;SDS011;38043;53.224;6.580;2023-09-07T14:29:16;6.22;;;3.55;;
52029;SDS011;38043;53.224;6.580;2023-09-07T14:31:41;6.00;;;3.40;;
52029;SDS011;38043;53.224;6.580;2023-09-07T14:34:08;7.63;;;3.55;;
52029;SDS011;38043;53.224;6.580;2023-09-07T14:36:36;10.27;;;3.65;;
52029;SDS011;38043;53.224;6.580;2023-09-07T14:39:01;8.07;;;3.50;;
52029;SDS011;38043;53.224;6.580;2023-09-07T14:41:28;5.78;;;3.50;;
52029;SDS011;38043;53.224;6.580;2023-09-07T14:43:55;6.72;;;3.25;;
52029;SDS011;38043;53.224;6.580;2023-09-07T14:46:21;8.43;;;4.10;;
52029;SDS011;38043;53.224;6.580;2023-09-07T14:51:14;6.18;;;3.53;;
52029;SDS011;38043;53.224;6.580;2023-09-07T14:53:40;9.13;;;3.58;;
52029;SDS011;38043;53.224;6.580;2023-09-07T14:56:06;6.45;;;3.35;;
52029;SDS011;38043;53.224;6.580;2023-09-07T14:58:32;6.05;;;2.90;;
52029;SDS011;38043;53.224;6.580;2023-09-07T15:00:58;6.63;;;3.20;;
52029;SDS011;38043;53.224;6.580;2023-09-07T15:03:25;8.18;;;3.63;;